createdAt,value
2018-07-25T00:00:21.800Z,20.90
2018-07-25T00:02:51.801Z,20.83
2018-07-25T00:05:22.039Z,20.80
2018-07-25T00:07:52.017Z,20.81
2018-07-25T00:10:22.137Z,20.96
2018-07-25T00:12:54.122Z,21.30
2018-07-25T00:15:24.072Z,21.52
2018-07-25T00:39:33.972Z,21.59
2018-07-25T00:42:15.387Z,21.22
2018-07-25T00:44:45.532Z,21.19
2018-07-25T00:47:16.690Z,21.21
2018-07-25T00:50:05.370Z,21.18
2018-07-25T00:52:35.787Z,21.20
2018-07-25T00:55:05.899Z,21.15
2018-07-25T00:57:35.979Z,21.14
2018-07-25T01:00:06.537Z,21.11
2018-07-25T01:03:01.217Z,21.05
2018-07-25T01:05:33.243Z,20.95
2018-07-25T01:08:03.205Z,20.75
2018-07-25T01:10:33.260Z,20.80
2018-07-25T01:13:27.329Z,20.79
2018-07-25T01:15:58.653Z,20.78
2018-07-25T01:18:32.366Z,20.76
2018-07-25T01:21:15.534Z,20.74
2018-07-25T01:24:00.403Z,20.85
2018-07-25T01:26:32.354Z,20.87
2018-07-25T01:29:02.343Z,20.86
2018-07-25T01:31:51.521Z,20.91
2018-07-25T01:34:29.726Z,20.88
2018-07-25T01:36:59.906Z,20.75
2018-07-25T01:39:29.918Z,20.91
2018-07-25T01:41:59.973Z,20.82
2018-07-25T01:44:30.794Z,20.74
2018-07-25T01:47:01.613Z,20.69
2018-07-25T01:49:32.191Z,20.60
2018-07-25T01:52:03.884Z,20.58
2018-07-25T01:54:34.306Z,20.53
2018-07-25T01:57:04.440Z,20.49
2018-07-25T01:59:34.626Z,20.44
2018-07-25T02:02:04.746Z,20.43
2018-07-25T02:04:36.090Z,20.51
2018-07-25T02:07:20.291Z,20.42
2018-07-25T02:09:52.150Z,20.70
2018-07-25T02:12:22.328Z,20.63
2018-07-25T02:14:52.237Z,20.57
2018-07-25T02:17:22.292Z,20.55
2018-07-25T02:19:52.395Z,20.61
2018-07-25T02:23:02.136Z,20.55
2018-07-25T02:25:35.890Z,20.41
2018-07-25T02:28:17.438Z,20.38
2018-07-25T02:30:53.833Z,20.50
2018-07-25T02:33:28.879Z,20.62
2018-07-25T02:35:59.128Z,20.66
2018-07-25T02:38:30.353Z,20.63
2018-07-25T02:41:00.306Z,20.51
2018-07-25T02:43:30.484Z,20.49
2018-07-25T03:06:46.711Z,20.04
2018-07-25T03:09:16.970Z,20.13
2018-07-25T03:11:47.579Z,20.02
2018-07-25T03:14:26.467Z,19.87
2018-07-25T03:17:14.016Z,19.61
2018-07-25T03:20:07.352Z,19.43
2018-07-25T03:22:38.952Z,19.28
2018-07-25T03:25:09.714Z,19.39
2018-07-25T03:27:39.927Z,19.78
2018-07-25T03:30:10.547Z,20.16
2018-07-25T03:32:40.756Z,20.32
2018-07-25T03:35:11.464Z,20.39
2018-07-25T03:37:46.132Z,20.38
2018-07-25T03:40:24.237Z,20.42
2018-07-25T03:43:17.741Z,20.23
2018-07-25T03:45:48.200Z,20.17
2018-07-25T03:48:19.071Z,20.29
2018-07-25T03:50:49.312Z,20.35
2018-07-25T03:53:19.495Z,20.32
2018-07-25T03:55:49.653Z,20.13
2018-07-25T03:58:19.775Z,19.98
2018-07-25T04:00:50.005Z,19.75
2018-07-25T04:03:20.737Z,19.72
2018-07-25T04:05:51.028Z,19.88
2018-07-25T04:08:21.329Z,19.83
2018-07-25T04:10:51.464Z,19.82
2018-07-25T04:13:21.598Z,19.87
2018-07-25T04:15:51.912Z,19.89
2018-07-25T04:18:22.481Z,19.75
2018-07-25T04:20:52.711Z,19.69
2018-07-25T04:23:22.921Z,19.69
2018-07-25T04:25:53.220Z,19.86
2018-07-25T04:28:23.523Z,20.02
2018-07-25T04:30:53.800Z,20.30
2018-07-25T04:33:24.927Z,20.58
2018-07-25T04:35:55.010Z,20.90
2018-07-25T04:38:25.158Z,21.24
2018-07-25T04:40:55.346Z,21.42
2018-07-25T04:43:25.599Z,21.67
2018-07-25T04:45:55.842Z,21.92
2018-07-25T04:48:26.153Z,21.97
2018-07-25T04:50:56.409Z,22.15
2018-07-25T04:53:26.682Z,22.32
2018-07-25T04:55:56.851Z,22.72
2018-07-25T04:58:29.990Z,22.88
2018-07-25T05:01:09.683Z,23.04
2018-07-25T05:03:39.931Z,23.16
2018-07-25T05:06:10.467Z,23.20
2018-07-25T05:08:41.945Z,23.50
2018-07-25T05:11:12.292Z,23.81
2018-07-25T05:13:42.421Z,24.11
2018-07-25T05:16:12.531Z,24.37
2018-07-25T05:18:42.798Z,24.58
2018-07-25T05:21:13.061Z,24.81
2018-07-25T05:23:43.138Z,25.13
2018-07-25T05:26:13.041Z,25.48
2018-07-25T05:28:43.017Z,25.41
2018-07-25T05:31:19.419Z,25.52
2018-07-25T05:33:49.306Z,25.56
2018-07-25T05:36:19.377Z,25.82
2018-07-25T05:38:49.385Z,26.03
2018-07-25T05:41:19.436Z,26.10
2018-07-25T05:43:49.367Z,26.18
2018-07-25T05:46:19.905Z,26.44
2018-07-25T05:48:49.970Z,26.44
2018-07-25T05:51:20.582Z,26.26
2018-07-25T05:53:50.610Z,25.75
2018-07-25T05:56:20.513Z,25.83
2018-07-25T05:58:50.801Z,26.07
2018-07-25T06:01:21.667Z,26.33
2018-07-25T06:03:52.068Z,26.39
2018-07-25T06:06:22.560Z,26.36
2018-07-25T06:08:52.776Z,26.57
2018-07-25T06:11:22.741Z,27.07
2018-07-25T06:13:52.642Z,27.31
2018-07-25T06:16:23.025Z,27.80
2018-07-25T06:18:53.194Z,28.24
2018-07-25T06:21:23.091Z,28.42
2018-07-25T06:23:53.338Z,28.14
2018-07-25T06:26:24.129Z,28.43
2018-07-25T06:28:54.007Z,28.41
2018-07-25T06:31:23.985Z,28.63
2018-07-25T06:33:53.818Z,28.51
2018-07-25T06:36:24.277Z,28.64
2018-07-25T06:38:54.135Z,28.90
2018-07-25T06:41:24.366Z,29.21
2018-07-25T06:43:54.212Z,29.68
2018-07-25T06:46:25.564Z,29.39
2018-07-25T06:48:55.631Z,29.16
2018-07-25T06:51:26.421Z,29.54
2018-07-25T06:53:56.394Z,30.14
2018-07-25T06:56:26.195Z,30.96
2018-07-25T06:58:56.064Z,30.46
2018-07-25T07:01:26.574Z,30.68
2018-07-25T07:03:56.397Z,30.85
2018-07-25T07:06:26.276Z,30.78
2018-07-25T07:08:56.391Z,31.05
2018-07-25T07:11:26.606Z,31.62
2018-07-25T07:13:56.530Z,31.56
2018-07-25T07:16:26.418Z,31.89
2018-07-25T07:18:56.321Z,32.12
2018-07-25T07:21:26.226Z,32.43
2018-07-25T07:23:56.395Z,32.75
2018-07-25T07:26:27.239Z,32.82
2018-07-25T07:28:57.128Z,32.92
2018-07-25T07:31:27.074Z,33.14
2018-07-25T07:33:57.008Z,33.09
2018-07-25T07:36:27.012Z,33.53
2018-07-25T07:38:57.150Z,33.83
2018-07-25T07:41:27.638Z,34.03
2018-07-25T07:43:57.795Z,33.47
2018-07-25T07:46:29.253Z,32.89
2018-07-25T07:48:59.315Z,33.14
2018-07-25T07:51:29.244Z,32.96
2018-07-25T07:53:59.177Z,33.49
2018-07-25T07:56:29.266Z,34.20
2018-07-25T07:58:59.266Z,34.39
2018-07-25T08:01:29.209Z,33.59
2018-07-25T08:03:59.044Z,34.10
2018-07-25T08:06:29.138Z,34.04
2018-07-25T08:08:59.057Z,34.38
2018-07-25T08:11:28.863Z,34.13
2018-07-25T08:13:58.737Z,33.75
2018-07-25T08:16:28.563Z,34.02
2018-07-25T08:18:58.503Z,34.40
2018-07-25T08:21:28.281Z,34.62
2018-07-25T08:23:58.238Z,35.35
2018-07-25T08:26:28.120Z,35.40
2018-07-25T08:28:57.997Z,35.39
2018-07-25T08:31:27.938Z,35.75
2018-07-25T08:33:57.911Z,35.56
2018-07-25T08:36:27.765Z,35.87
2018-07-25T08:38:57.658Z,35.74
2018-07-25T08:41:27.458Z,35.43
2018-07-25T08:43:57.327Z,34.85
2018-07-25T08:46:27.218Z,34.73
2018-07-25T08:48:57.105Z,33.82
2018-07-25T08:51:27.181Z,33.71
2018-07-25T08:53:57.024Z,33.20
2018-07-25T08:56:27.042Z,33.22
2018-07-25T08:58:56.910Z,33.41
2018-07-25T09:01:26.846Z,34.59
2018-07-25T09:03:56.852Z,34.78
2018-07-25T09:06:26.881Z,35.42
2018-07-25T09:08:57.084Z,36.24
2018-07-25T09:11:28.607Z,36.34
2018-07-25T09:13:59.154Z,35.39
2018-07-25T09:16:31.084Z,32.70
2018-07-25T09:19:01.482Z,32.51
2018-07-25T09:21:31.497Z,33.50
2018-07-25T09:24:01.501Z,33.45
2018-07-25T09:26:32.702Z,33.77
2018-07-25T09:29:02.875Z,32.24
2018-07-25T09:31:36.935Z,32.84
2018-07-25T09:34:07.236Z,33.15
2018-07-25T09:36:37.368Z,34.28
2018-07-25T09:39:10.637Z,35.38
2018-07-25T09:41:40.821Z,33.62
2018-07-25T09:44:11.354Z,33.56
2018-07-25T09:46:45.996Z,33.66
2018-07-25T09:49:16.126Z,33.82
2018-07-25T09:51:47.573Z,34.02
2018-07-25T09:54:17.701Z,34.42
2018-07-25T09:56:48.611Z,32.76
2018-07-25T09:59:24.298Z,33.57
2018-07-25T10:01:54.330Z,34.65
2018-07-25T10:04:24.260Z,35.74
2018-07-25T10:06:54.117Z,35.08
2018-07-25T10:09:24.035Z,33.77
2018-07-25T10:11:53.975Z,33.35
2018-07-25T10:14:23.822Z,33.90
2018-07-25T10:16:53.682Z,34.80
2018-07-25T10:19:23.792Z,35.92
2018-07-25T10:21:54.422Z,34.41
2018-07-25T10:24:24.420Z,35.57
2018-07-25T10:26:54.393Z,35.61
2018-07-25T10:29:24.362Z,34.70
2018-07-25T10:31:54.369Z,35.69
2018-07-25T10:34:24.283Z,36.63
2018-07-25T10:36:54.154Z,35.93
2018-07-25T10:39:24.740Z,36.55
2018-07-25T10:42:10.873Z,34.64
2018-07-25T10:44:40.837Z,34.76
2018-07-25T10:47:11.786Z,34.86
2018-07-25T10:49:41.729Z,35.70
2018-07-25T10:52:12.284Z,35.88
2018-07-25T10:54:42.139Z,35.60
2018-07-25T10:57:12.277Z,35.90
2018-07-25T10:59:42.179Z,36.22
2018-07-25T11:02:12.558Z,35.95
2018-07-25T11:04:42.353Z,35.25
2018-07-25T11:07:12.536Z,35.83
2018-07-25T11:09:42.562Z,34.89
2018-07-25T11:12:12.428Z,34.02
2018-07-25T11:14:42.294Z,34.07
2018-07-25T11:17:12.430Z,33.99
2018-07-25T11:19:42.540Z,35.08
2018-07-25T11:22:12.673Z,35.79
2018-07-25T11:24:42.661Z,36.65
2018-07-25T11:27:12.573Z,36.12
2018-07-25T11:29:42.543Z,35.60
2018-07-25T11:32:12.436Z,35.02
2018-07-25T11:34:42.338Z,34.99
2018-07-25T11:37:12.394Z,35.51
2018-07-25T11:39:42.204Z,35.92
2018-07-25T11:42:27.401Z,36.51
2018-07-25T11:44:57.325Z,36.56
2018-07-25T11:47:27.225Z,36.40
2018-07-25T11:49:57.226Z,36.96
2018-07-25T11:52:27.154Z,37.43
2018-07-25T11:54:57.371Z,37.56
2018-07-25T11:57:27.297Z,36.95
2018-07-25T12:00:16.508Z,37.43
2018-07-25T12:02:47.360Z,36.54
2018-07-25T12:05:19.773Z,36.76
2018-07-25T12:07:49.604Z,36.72
2018-07-25T12:10:21.945Z,36.61
2018-07-25T12:12:51.842Z,35.97
2018-07-25T12:15:28.780Z,35.62
2018-07-25T12:17:58.583Z,36.02
2018-07-25T12:20:28.445Z,36.17
2018-07-25T12:22:58.334Z,36.02
2018-07-25T12:25:28.233Z,36.27
2018-07-25T12:27:58.107Z,34.36
2018-07-25T12:30:27.974Z,34.32
2018-07-25T12:32:57.824Z,35.23
2018-07-25T12:35:27.688Z,36.63
2018-07-25T12:37:57.535Z,36.97
2018-07-25T12:40:27.442Z,36.93
2018-07-25T12:42:57.391Z,35.82
2018-07-25T12:45:27.279Z,37.02
2018-07-25T12:48:00.357Z,37.50
2018-07-25T12:50:30.953Z,37.69
2018-07-25T12:53:01.149Z,37.70
2018-07-25T12:55:31.026Z,34.69
2018-07-25T12:58:01.584Z,33.96
2018-07-25T13:00:34.513Z,33.44
2018-07-25T13:03:06.581Z,33.29
2018-07-25T13:05:36.855Z,33.43
2018-07-25T13:08:06.750Z,32.06
2018-07-25T13:10:36.570Z,32.40
2018-07-25T13:13:07.282Z,33.44
2018-07-25T13:15:37.119Z,32.82
2018-07-25T13:18:07.229Z,32.82
2018-07-25T13:20:37.109Z,33.23
2018-07-25T13:23:07.181Z,33.17
2018-07-25T13:25:37.057Z,33.82
2018-07-25T13:28:06.931Z,33.18
2018-07-25T13:30:36.917Z,33.82
2018-07-25T13:33:06.797Z,35.13
2018-07-25T13:35:36.772Z,35.95
2018-07-25T13:38:06.689Z,36.06
2018-07-25T13:40:36.611Z,35.91
2018-07-25T13:43:06.591Z,36.08
2018-07-25T13:45:36.481Z,35.96
2018-07-25T13:48:06.685Z,35.89
2018-07-25T13:50:36.785Z,35.75
2018-07-25T13:53:07.075Z,35.89
2018-07-25T13:55:37.020Z,35.85
2018-07-25T13:58:07.237Z,35.34
2018-07-25T14:00:37.112Z,34.56
2018-07-25T14:03:07.578Z,34.71
2018-07-25T14:05:37.689Z,34.69
2018-07-25T14:08:07.616Z,34.59
2018-07-25T14:10:37.831Z,34.05
2018-07-25T14:13:07.834Z,33.37
2018-07-25T14:15:45.120Z,33.34
2018-07-25T14:18:16.109Z,33.32
2018-07-25T14:20:47.267Z,33.35
2018-07-25T14:23:18.424Z,33.30
2018-07-25T14:26:31.437Z,33.15
2018-07-25T14:36:05.751Z,33.76
2018-07-25T14:38:35.749Z,34.21
2018-07-25T14:41:05.665Z,33.92
2018-07-25T14:43:35.610Z,33.63
2018-07-25T14:46:05.688Z,33.59
2018-07-25T14:48:43.981Z,33.32
2018-07-25T14:51:14.130Z,33.21
2018-07-25T14:53:43.996Z,33.19
2018-07-25T14:56:13.866Z,33.03
2018-07-25T14:58:43.806Z,32.81
2018-07-25T15:01:13.778Z,32.66
2018-07-25T15:03:43.988Z,32.38
2018-07-25T15:06:14.218Z,32.16
2018-07-25T15:08:44.527Z,32.05
2018-07-25T15:11:14.678Z,31.48
2018-07-25T15:13:44.805Z,31.29
2018-07-25T15:16:15.008Z,31.18
2018-07-25T15:18:45.156Z,30.91
2018-07-25T15:21:15.345Z,30.81
2018-07-25T15:23:59.404Z,30.77
2018-07-25T15:26:29.910Z,30.79
2018-07-25T15:29:01.074Z,30.82
2018-07-25T15:31:31.252Z,30.73
2018-07-25T15:34:01.425Z,30.60
2018-07-25T15:36:48.427Z,30.58
2018-07-25T15:39:21.935Z,30.46
2018-07-25T15:41:52.924Z,30.46
2018-07-25T15:44:24.106Z,30.51
2018-07-25T15:46:54.433Z,30.44
2018-07-25T15:49:24.774Z,30.40
2018-07-25T15:51:54.991Z,30.43
2018-07-25T15:54:25.287Z,30.42
2018-07-25T15:56:55.318Z,30.39
2018-07-25T15:59:25.758Z,30.33
2018-07-25T16:01:55.885Z,30.23
2018-07-25T16:04:25.951Z,30.06
2018-07-25T16:06:56.044Z,29.90
2018-07-25T16:09:26.273Z,29.81
2018-07-25T16:11:56.496Z,29.81
2018-07-25T16:14:26.594Z,29.85
2018-07-25T16:16:57.228Z,29.92
2018-07-25T16:20:07.149Z,29.90
2018-07-25T16:23:20.041Z,30.02
2018-07-25T16:29:25.184Z,29.27
2018-07-25T16:31:55.303Z,29.03
2018-07-25T16:34:25.346Z,28.96
2018-07-25T16:36:55.438Z,28.78
2018-07-25T16:39:25.482Z,28.71
2018-07-25T16:41:55.507Z,28.76
2018-07-25T16:44:25.474Z,28.70
2018-07-25T16:46:55.438Z,28.51
2018-07-25T16:49:25.348Z,28.24
2018-07-25T16:51:55.241Z,28.09
2018-07-25T16:54:25.142Z,28.12
2018-07-25T16:56:55.206Z,27.97
2018-07-25T16:59:25.221Z,27.82
2018-07-25T17:01:55.144Z,27.76
2018-07-25T17:04:25.258Z,27.74
2018-07-25T17:06:55.415Z,27.72
2018-07-25T17:09:25.387Z,27.64
2018-07-25T17:11:55.621Z,27.49
2018-07-25T17:14:28.962Z,27.37
2018-07-25T17:16:58.833Z,27.28
2018-07-25T17:19:29.132Z,27.22
2018-07-25T17:21:59.292Z,27.31
2018-07-25T17:24:29.659Z,27.06
2018-07-25T17:27:00.059Z,26.76
2018-07-25T17:29:30.283Z,26.52
2018-07-25T17:32:00.349Z,26.30
2018-07-25T17:34:30.489Z,26.14
2018-07-25T17:37:00.586Z,25.98
2018-07-25T17:39:30.648Z,26.04
2018-07-25T17:42:00.842Z,25.91
2018-07-25T17:44:32.277Z,25.70
2018-07-25T17:47:02.822Z,25.58
2018-07-25T17:49:33.261Z,25.61
2018-07-25T17:52:03.372Z,25.62
2018-07-25T17:54:33.514Z,25.56
2018-07-25T17:57:04.446Z,25.49
2018-07-25T17:59:34.759Z,25.63
2018-07-25T18:02:06.234Z,25.71
2018-07-25T18:05:05.289Z,25.72
2018-07-25T18:07:44.073Z,25.61
2018-07-25T18:17:02.984Z,25.44
2018-07-25T18:19:33.155Z,25.38
2018-07-25T18:22:04.563Z,25.48
2018-07-25T18:24:34.734Z,25.54
2018-07-25T18:27:05.132Z,25.45
2018-07-25T18:29:35.877Z,25.17
2018-07-25T18:32:06.213Z,25.04
2018-07-25T18:34:37.058Z,25.13
2018-07-25T18:37:07.709Z,25.29
2018-07-25T18:39:38.520Z,25.06
2018-07-25T18:42:08.945Z,24.90
2018-07-25T18:44:39.068Z,24.73
2018-07-25T18:47:09.973Z,24.78
2018-07-25T18:49:42.468Z,24.81
2018-07-25T18:52:16.132Z,24.88
2018-07-25T18:54:46.019Z,24.88
2018-07-25T18:57:16.016Z,24.78
2018-07-25T18:59:46.003Z,24.70
2018-07-25T19:02:16.028Z,24.63
2018-07-25T19:04:46.312Z,24.62
2018-07-25T19:07:17.163Z,24.50
2018-07-25T19:09:47.306Z,24.39
2018-07-25T19:12:17.261Z,24.55
2018-07-25T19:14:52.667Z,24.43
2018-07-25T19:17:22.979Z,24.26
2018-07-25T19:19:52.890Z,24.11
2018-07-25T19:22:23.019Z,24.17
2018-07-25T19:24:52.931Z,24.15
2018-07-25T19:27:23.658Z,24.18
2018-07-25T19:29:56.438Z,24.07
2018-07-25T19:32:26.886Z,23.98
2018-07-25T19:35:16.146Z,23.84
2018-07-25T19:38:03.312Z,23.64
2018-07-25T19:40:52.918Z,23.48
2018-07-25T19:43:22.860Z,23.51
2018-07-25T19:45:52.997Z,23.55
2018-07-25T19:48:23.048Z,23.54
2018-07-25T19:50:53.136Z,23.56
2018-07-25T19:53:23.331Z,23.57
2018-07-25T19:55:53.391Z,23.67
2018-07-25T20:04:59.630Z,23.73
2018-07-25T20:07:30.301Z,23.62
2018-07-25T20:10:00.535Z,23.43
2018-07-25T20:12:30.558Z,23.54
2018-07-25T20:15:05.690Z,23.50
2018-07-25T20:18:03.714Z,23.54
2018-07-25T20:20:35.815Z,23.50
2018-07-25T20:23:05.774Z,23.43
2018-07-25T20:25:35.963Z,23.31
2018-07-25T20:28:12.305Z,23.16
2018-07-25T20:30:53.178Z,23.08
2018-07-25T20:33:23.421Z,23.06
2018-07-25T20:35:53.742Z,23.01
2018-07-25T20:38:24.553Z,22.98
2018-07-25T20:40:54.535Z,22.88
2018-07-25T20:43:24.522Z,22.85
2018-07-25T20:46:20.191Z,22.84
2018-07-25T20:48:51.362Z,22.79
2018-07-25T20:51:21.605Z,22.72
2018-07-25T20:53:51.588Z,22.76
2018-07-25T20:56:31.299Z,22.83
2018-07-25T20:59:04.076Z,23.05
2018-07-25T21:01:35.289Z,23.02
2018-07-25T21:04:05.902Z,22.93
2018-07-25T21:06:36.019Z,22.84
2018-07-25T21:09:14.556Z,22.77
2018-07-25T21:11:55.921Z,22.69
2018-07-25T21:14:25.965Z,22.73
2018-07-25T21:17:16.362Z,22.75
2018-07-25T21:19:49.337Z,22.73
2018-07-25T21:22:20.469Z,22.76
2018-07-25T21:25:23.846Z,22.70
2018-07-25T21:27:57.110Z,22.71
2018-07-25T21:30:28.607Z,22.71
2018-07-25T21:33:08.259Z,22.67
2018-07-25T21:35:42.286Z,22.49
2018-07-25T21:38:13.406Z,22.42
2018-07-25T21:40:43.436Z,22.40
2018-07-25T21:43:14.168Z,22.55
2018-07-25T21:45:44.503Z,22.52
2018-07-25T21:48:14.397Z,22.36
2018-07-25T21:50:44.601Z,22.34
2018-07-25T21:53:14.747Z,22.34
2018-07-25T21:55:45.548Z,22.36
2018-07-25T21:58:21.882Z,22.33
2018-07-25T22:01:18.350Z,22.19
2018-07-25T22:03:48.556Z,22.26
2018-07-25T22:06:18.604Z,22.14
2018-07-25T22:08:48.591Z,22.04
2018-07-25T22:11:21.663Z,21.92
2018-07-25T22:14:07.626Z,21.91
2018-07-25T22:16:40.734Z,21.92
2018-07-25T22:19:22.362Z,21.97
2018-07-25T22:21:52.519Z,21.93
2018-07-25T22:24:50.205Z,21.87
2018-07-25T22:27:36.499Z,21.80
2018-07-25T22:30:07.038Z,21.79
2018-07-25T22:32:36.953Z,21.89
2018-07-25T22:35:07.388Z,21.91
2018-07-25T22:37:37.422Z,21.89
2018-07-25T22:40:08.275Z,21.78
2018-07-25T22:42:50.034Z,21.84
2018-07-25T22:45:26.645Z,21.86
2018-07-25T22:47:56.864Z,21.89
2018-07-25T22:50:27.517Z,21.83
2018-07-25T22:52:58.393Z,21.79
2018-07-25T22:55:28.475Z,21.81
2018-07-25T22:58:04.012Z,21.85
2018-07-25T23:00:36.845Z,21.90
2018-07-25T23:03:07.130Z,21.82
2018-07-25T23:05:48.745Z,21.77
2018-07-25T23:08:19.576Z,21.80
2018-07-25T23:11:02.783Z,21.80
2018-07-25T23:13:32.947Z,21.79
2018-07-25T23:16:19.793Z,21.79
2018-07-25T23:18:50.278Z,21.78
2018-07-25T23:21:40.040Z,21.72
2018-07-25T23:24:10.600Z,21.87
2018-07-25T23:26:40.614Z,21.98
2018-07-25T23:29:11.050Z,22.09
2018-07-25T23:31:42.049Z,21.99
2018-07-25T23:34:12.562Z,21.83
2018-07-25T23:36:42.575Z,21.71
2018-07-25T23:39:13.033Z,21.82
2018-07-25T23:41:55.222Z,21.98
2018-07-25T23:44:29.990Z,22.00
2018-07-25T23:47:00.710Z,21.88
2018-07-25T23:49:34.903Z,21.81
2018-07-25T23:52:18.414Z,21.80
2018-07-25T23:54:49.135Z,21.63
2018-07-25T23:57:19.407Z,21.53
2018-07-25T23:59:49.441Z,21.62
